Detall de PIREP

Printer-friendly versionPDF version

[2016/12/24 10:21:00]
Flight IATA:CT1004
Pilot Number:012
Company ICAO:CAT
Aircraft Type:DC85/A
PAX:132
Aircraft Registration:PAX
Departing Airport: LFMP
Destination Airport: EICK
Alternate Airport:EIDW
Online: VATSIM
Route:ORBIL G36 GAI UY156 FOUCO UT183 MANAK UN863 TIRAV UT183 DEGEX UN490 BERAD UM142 INSUN UN160 LEDGO ERTER
Flight Level:F380
No Slew and time accel
No pause
Crash detect
Detect pilot in Cockpit between each 30 and 45 minutes
10:21 Zero fuel Weight: 164423 Lbs, Fuel Weight: 42065 Lbs
10:21 VATSIM:LFMP 241000Z AUTO 30015KT CAVOK 16/08 Q1035 NOSIG
10:21 VATSIM:EICK 241000Z 23013KT 9999 FEW010 BKN023 08/07 Q1026 NOSIG
10:21 XMAS CHARTER
10:21 Parking Brakes off
10:25 Take-off
10:25 Take off Weight: 205829 Lbs
10:25 Wind: 299º @ 015 Knots Heading: 323º
10:25 POS N42º 44´ 50´´ E002º 52´ 02´´
10:25 Flaps:2 at 166 Knots
10:25 Gear Up: 170 Knots
10:26 Flaps:1 at 200 Knots
10:26 Flaps:0 at 216 Knots
10:40 Wind:320º@041 Knots Heading: 325º Ground Speed: 351 Knots Altitude 38398 ft
10:40 TOC
10:40 Fuel Weight: 36756 Lb
10:55 Wind:312º@054 Knots Heading: 326º Ground Speed: 422 Knots Altitude 38674 ft
11:10 Wind:316º@049 Knots Heading: 319º Ground Speed: 420 Knots Altitude 38664 ft
11:25 Wind:318º@051 Knots Heading: 307º Ground Speed: 418 Knots Altitude 38638 ft
11:40 Wind:319º@056 Knots Heading: 322º Ground Speed: 406 Knots Altitude 38605 ft
11:55 Wind:320º@077 Knots Heading: 297º Ground Speed: 399 Knots Altitude 38517 ft
11:58 TOD
11:58 Fuel Weight: 20553 Lb
12:10 Wind:289º@082 Knots Heading: 308º Ground Speed: 328 Knots Altitude 17887 ft
12:20 Flaps:1 at 233 Knots
12:21 Flaps:2 at 217 Knots
12:24 Gear Down: 198 Knots
12:24 Flaps:3 at 179 Knots
12:25 Wind:244º@013 Knots Heading: 186º Ground Speed: 143 Knots Altitude 2723 ft
12:25 Flaps:4 at 148 Knots
12:25 Flaps:5 at 136 Knots
12:28 TouchDown:Rate -272 ft/min Speed: 118 Knots
12:28 Flaps:4 at 57 Knots
12:28 VATSIM:EICK 241200Z 24013KT 9999 SCT007 BKN016 09/08 Q1025 NOSIG
12:28 Land
12:28 Wind:244º@013 Knots
12:28 Heading: 160º
12:28 Flight Duration: 02:03
12:28 Landing Weight: 181400 Lbs
12:28 POS N51º 50´ 17´´ W008º 29´ 22´´
12:30 Parking brakes on
12:30 Block to Block Duration: 02:09
12:30 Final Fuel: 16578 Lbls
12:30 Spent Fuel: 25487 Lbls
12:30 Flight Length: 758 NM
12:30 TOD Land Length: 140 NM

Exportar CSV

Powered by Drupal - Modified by Danger4k